Chicago, Illinois
Traffic Map
Current Weather Conditions
Chicago, Illinois
Overcast Light Rain
Overcast
74°
Feels Like: 74°
Wind Chill: 74° Ceiling: 11000
Heat Index: 74° Visibility: 10mi
Dew Point: 64° Wind: 12mph
Humidity: 71% Direction: 80° (E)
Pressure: 30.04in Gusts: 0mph
Raw Report DataKMDW 290051Z 08010KT 10SM -RA BKN110 OVC150 23/18 A3004 RMK AO2 RAB37 SLP166 P0000 T02330178
Traffic Incident Summary
Active as of:
Severity:
Category:
InformationThere was an issue retrieving the traffic information for this location. Please try a different location or try again shortly.
Advertisements
Track Severe Weather on mobile